Time;durP1;ratioP1;P1;durP2;ratioP2;P2;SDS_P1;SDS_P2;PMS_P1;PMS_P2;Temp;Humidity;BMP_temperature;BMP_pressure;BME280_temperature;BME280_humidity;BME280_pressure;Samples;Min_cycle;Max_cycle;Signal;HPM_P1;HPM_P2
2023/06/03 00:00:53;;;;;;;;;;;11.20;99.90;;;;;;5074593;28;19904;-84
2023/06/03 00:03:20;;;;;;;;;;;11.10;99.90;;;;;;5074275;28;19990;-83
2023/06/03 00:05:45;;;;;;;;;;;11.10;99.90;;;;;;5073858;28;19915;-84
2023/06/03 00:08:11;;;;;;;;;;;11.00;99.90;;;;;;5067667;28;20334;-84
2023/06/03 00:11:02;;;;;;;;;;;11.00;99.90;;;;;;5090009;28;19908;-83
2023/06/03 00:13:27;;;;;;;;;;;11.00;99.90;;;;;;5057064;28;20690;-84
2023/06/03 00:15:53;;;;;;;;;;;11.00;99.90;;;;;;5074685;28;19991;-83
2023/06/03 00:18:18;;;;;;;;;;;11.00;99.90;;;;;;5074545;28;20256;-84
2023/06/03 00:20:47;;;;;;;;;;;11.00;99.90;;;;;;5074656;28;19920;-84
2023/06/03 00:23:16;;;;;;;;;;;11.00;99.90;;;;;;5074203;28;19914;-84
2023/06/03 00:25:41;;;;;;;;;;;11.10;99.90;;;;;;5075184;28;19954;-82
2023/06/03 00:28:08;;;;;;;;;;;11.10;99.90;;;;;;5074451;28;20358;-82
2023/06/03 00:30:33;;;;;;;;;;;11.00;99.90;;;;;;5074261;28;20018;-84
2023/06/03 00:33:00;;;;;;;;;;;11.00;99.90;;;;;;5074502;28;19908;-83
2023/06/03 00:35:25;;;;;;;;;;;10.90;99.90;;;;;;5074022;28;19916;-84
2023/06/03 00:37:52;;;;;;;;;;;10.90;99.90;;;;;;5074078;28;20046;-83
2023/06/03 00:40:17;;;;;;;;;;;10.80;99.90;;;;;;5074249;28;19958;-83
2023/06/03 00:43:07;;;;;;;;;;;10.80;99.90;;;;;;5074033;28;20622;-84
2023/06/03 00:45:32;;;;;;;;;;;10.80;99.90;;;;;;5074234;28;19999;-83
2023/06/03 00:47:58;;;;;;;;;;;10.70;99.90;;;;;;5080083;28;20417;-84
2023/06/03 00:50:24;;;;;;;;;;;10.80;99.90;;;;;;5073752;28;19904;-83
2023/06/03 00:52:51;;;;;;;;;;;10.90;99.90;;;;;;5073140;28;20288;-83
2023/06/03 00:55:17;;;;;;;;;;;10.90;99.90;;;;;;5073583;28;20265;-82
2023/06/03 00:57:55;;;;;;;;;;;10.80;99.90;;;;;;5073880;28;19958;-83
2023/06/03 01:00:20;;;;;;;;;;;10.80;99.90;;;;;;5073789;28;19909;-82
2023/06/03 01:02:46;;;;;;;;;;;10.80;99.90;;;;;;5078308;28;19912;-83
2023/06/03 01:05:13;;;;;;;;;;;10.70;99.90;;;;;;5075265;28;19918;-82
2023/06/03 01:07:38;;;;;;;;;;;10.70;99.90;;;;;;5078638;28;19912;-82
2023/06/03 01:10:23;;;;;;;;;;;10.70;99.90;;;;;;5076445;28;20050;-82
2023/06/03 01:12:48;;;;;;;;;;;10.60;99.90;;;;;;5057363;28;19916;-82
2023/06/03 01:15:18;;;;;;;;;;;10.50;99.90;;;;;;5075032;28;19912;-83
2023/06/03 01:17:47;;;;;;;;;;;10.60;99.90;;;;;;5073967;28;19908;-82
2023/06/03 01:20:13;;;;;;;;;;;10.60;99.90;;;;;;5074261;28;19912;-83
2023/06/03 01:22:41;;;;;;;;;;;10.50;99.90;;;;;;5073634;28;19919;-82
2023/06/03 01:25:08;;;;;;;;;;;10.50;99.90;;;;;;5073829;28;20421;-83
2023/06/03 01:27:36;;;;;;;;;;;10.50;99.90;;;;;;5073487;28;19966;-83
2023/06/03 01:30:03;;;;;;;;;;;10.50;99.90;;;;;;5073853;28;20268;-84
2023/06/03 01:32:28;;;;;;;;;;;10.50;99.90;;;;;;5072969;28;20449;-83
2023/06/03 01:34:54;;;;;;;;;;;10.40;99.90;;;;;;5073335;28;19972;-83
2023/06/03 01:37:21;;;;;;;;;;;10.40;99.90;;;;;;5072432;28;19904;-83
2023/06/03 01:39:48;;;;;;;;;;;10.40;99.90;;;;;;5073038;28;19942;-83
2023/06/03 01:42:14;;;;;;;;;;;10.40;99.90;;;;;;5070479;28;19908;-83
2023/06/03 01:44:40;;;;;;;;;;;10.40;99.90;;;;;;5073437;28;19931;-83
2023/06/03 01:47:06;;;;;;;;;;;10.40;99.90;;;;;;5069006;28;19923;-83
2023/06/03 01:49:31;;;;;;;;;;;10.40;99.90;;;;;;5089469;28;19916;-84
2023/06/03 01:51:58;;;;;;;;;;;10.30;99.90;;;;;;5072958;28;20386;-84
2023/06/03 01:54:25;;;;;;;;;;;10.20;99.90;;;;;;5073327;28;19915;-83
2023/06/03 01:56:53;;;;;;;;;;;10.20;99.90;;;;;;5072887;28;20351;-83
2023/06/03 01:59:25;;;;;;;;;;;10.20;99.90;;;;;;5072242;28;20259;-84
2023/06/03 02:01:54;;;;;;;;;;;10.20;99.90;;;;;;5072042;28;19978;-83
2023/06/03 02:04:21;;;;;;;;;;;10.30;99.90;;;;;;5072520;28;19908;-83
2023/06/03 02:06:58;;;;;;;;;;;10.30;99.90;;;;;;5056009;28;19915;-84
2023/06/03 02:09:27;;;;;;;;;;;10.30;99.90;;;;;;5072727;28;19923;-83
2023/06/03 02:11:53;;;;;;;;;;;10.40;99.90;;;;;;5073207;28;19958;-84
2023/06/03 02:14:19;;;;;;;;;;;10.30;99.90;;;;;;5072878;28;20019;-84
2023/06/03 02:16:44;;;;;;;;;;;10.30;99.90;;;;;;5072756;28;19956;-83
2023/06/03 02:19:14;;;;;;;;;;;10.30;99.90;;;;;;5072062;28;19912;-83
2023/06/03 02:21:41;;;;;;;;;;;10.30;99.90;;;;;;5081458;28;19950;-82
2023/06/03 02:24:07;;;;;;;;;;;10.30;99.90;;;;;;5072001;28;19913;-83
2023/06/03 02:26:34;;;;;;;;;;;10.20;99.90;;;;;;5072603;28;19954;-83
2023/06/03 02:29:00;;;;;;;;;;;10.20;99.90;;;;;;5072059;28;19916;-83
2023/06/03 02:31:26;;;;;;;;;;;10.20;99.90;;;;;;5072400;28;20591;-83
2023/06/03 02:33:51;;;;;;;;;;;10.30;99.90;;;;;;5072737;28;20331;-83
2023/06/03 02:36:18;;;;;;;;;;;10.20;99.90;;;;;;5075763;28;19909;-83
2023/06/03 02:38:44;;;;;;;;;;;10.20;99.90;;;;;;5076367;28;19911;-83
2023/06/03 02:41:10;;;;;;;;;;;10.20;99.90;;;;;;5076279;28;19916;-83
2023/06/03 02:43:36;;;;;;;;;;;10.20;99.90;;;;;;5076290;28;19909;-82
2023/06/03 02:46:02;;;;;;;;;;;10.10;99.90;;;;;;5076460;28;19908;-83
2023/06/03 02:48:27;;;;;;;;;;;10.10;99.90;;;;;;5076017;28;19955;-83
2023/06/03 02:50:53;;;;;;;;;;;10.10;99.90;;;;;;5076147;28;19915;-83
2023/06/03 02:53:19;;;;;;;;;;;10.10;99.90;;;;;;5075708;28;19905;-84
2023/06/03 02:55:45;;;;;;;;;;;10.10;99.90;;;;;;5075839;28;20386;-83
2023/06/03 02:58:15;;;;;;;;;;;10.10;99.90;;;;;;5075890;28;19912;-83
2023/06/03 03:00:41;;;;;;;;;;;10.10;99.90;;;;;;5086155;28;20003;-83
2023/06/03 03:03:06;;;;;;;;;;;10.10;99.90;;;;;;5076278;28;20371;-83
2023/06/03 03:05:34;;;;;;;;;;;10.00;99.90;;;;;;5075891;28;19934;-83
2023/06/03 03:07:59;;;;;;;;;;;10.00;99.90;;;;;;5075593;28;19913;-83
2023/06/03 03:10:25;;;;;;;;;;;10.00;99.90;;;;;;5059078;28;19909;-83
2023/06/03 03:12:51;;;;;;;;;;;10.00;99.90;;;;;;5069254;28;19953;-84
2023/06/03 03:15:18;;;;;;;;;;;10.00;99.90;;;;;;5075803;28;20356;-84
2023/06/03 03:17:44;;;;;;;;;;;10.00;99.90;;;;;;5058957;28;19904;-84
2023/06/03 03:20:10;;;;;;;;;;;10.00;99.90;;;;;;5075639;28;20521;-83
2023/06/03 03:22:40;;;;;;;;;;;10.00;99.90;;;;;;5075272;28;20546;-83
2023/06/03 03:25:06;;;;;;;;;;;10.00;99.90;;;;;;5075198;28;19896;-83
2023/06/03 03:27:32;;;;;;;;;;;10.00;99.90;;;;;;5092373;28;19908;-83
2023/06/03 03:30:02;;;;;;;;;;;9.90;99.90;;;;;;5058605;28;20321;-83
2023/06/03 03:32:29;;;;;;;;;;;9.90;99.90;;;;;;5073358;28;19908;-84
2023/06/03 03:34:58;;;;;;;;;;;9.90;99.90;;;;;;5058708;28;20346;-83
2023/06/03 03:37:23;;;;;;;;;;;10.00;99.90;;;;;;5073407;28;19954;-84
2023/06/03 03:39:49;;;;;;;;;;;9.90;99.90;;;;;;5076143;28;20272;-83
2023/06/03 03:42:15;;;;;;;;;;;10.00;99.90;;;;;;5083087;28;19912;-83
2023/06/03 03:44:41;;;;;;;;;;;10.00;99.90;;;;;;5094205;28;19919;-83
2023/06/03 03:47:09;;;;;;;;;;;9.90;99.90;;;;;;5093786;28;19920;-83
2023/06/03 03:49:38;;;;;;;;;;;10.00;99.90;;;;;;5095180;28;19912;-83
2023/06/03 03:52:08;;;;;;;;;;;10.00;99.90;;;;;;5079554;28;19916;-82
2023/06/03 03:54:37;;;;;;;;;;;9.90;99.90;;;;;;5060084;28;19916;-83
2023/06/03 03:57:12;;;;;;;;;;;10.00;99.90;;;;;;5059823;28;19913;-83
2023/06/03 03:59:42;;;;;;;;;;;10.00;99.90;;;;;;5075722;28;19912;-83
2023/06/03 04:05:36;;;;;;;;;;;10.10;99.90;;;;;;5076169;28;19982;-83
2023/06/03 04:08:05;;;;;;;;;;;10.10;99.90;;;;;;5075065;28;19916;-83
2023/06/03 04:10:32;;;;;;;;;;;10.20;99.90;;;;;;5074776;28;19909;-83
2023/06/03 04:12:59;;;;;;;;;;;10.20;99.90;;;;;;5068833;28;19973;-83
2023/06/03 04:15:30;;;;;;;;;;;10.30;99.90;;;;;;5058109;28;20371;-83
2023/06/03 04:17:56;;;;;;;;;;;10.30;99.90;;;;;;5068350;28;19916;-83
2023/06/03 04:20:31;;;;;;;;;;;10.40;99.90;;;;;;5074405;28;19912;-84
2023/06/03 04:22:58;;;;;;;;;;;10.40;99.90;;;;;;5074244;28;19930;-84
2023/06/03 04:25:24;;;;;;;;;;;10.40;99.90;;;;;;5057287;28;19987;-83
2023/06/03 04:27:53;;;;;;;;;;;10.50;99.90;;;;;;5058082;28;20403;-84
2023/06/03 04:30:19;;;;;;;;;;;10.60;99.90;;;;;;5073543;28;19927;-84
2023/06/03 04:32:45;;;;;;;;;;;10.60;99.90;;;;;;5074101;28;20368;-83
2023/06/03 04:35:11;;;;;;;;;;;10.60;99.90;;;;;;5073759;28;19912;-83
2023/06/03 04:37:40;;;;;;;;;;;10.60;99.90;;;;;;5074046;28;20275;-83
2023/06/03 04:40:09;;;;;;;;;;;10.70;99.90;;;;;;5074055;28;20006;-83
2023/06/03 04:42:35;;;;;;;;;;;10.70;99.90;;;;;;5073820;28;19912;-83
2023/06/03 04:45:03;;;;;;;;;;;10.70;99.90;;;;;;5073857;28;19966;-84
2023/06/03 04:47:33;;;;;;;;;;;10.70;99.90;;;;;;5073720;28;19912;-83
2023/06/03 04:50:09;;;;;;;;;;;10.80;99.90;;;;;;5074062;28;19940;-83
2023/06/03 04:52:38;;;;;;;;;;;10.90;99.90;;;;;;5073983;28;19913;-84
2023/06/03 04:55:06;;;;;;;;;;;11.00;99.90;;;;;;5073437;28;19908;-83
2023/06/03 04:57:32;;;;;;;;;;;11.00;99.90;;;;;;5072834;28;19908;-83
2023/06/03 04:59:57;;;;;;;;;;;11.00;99.90;;;;;;5073427;28;20241;-83
2023/06/03 05:02:29;;;;;;;;;;;11.10;99.90;;;;;;5073548;28;19948;-84
2023/06/03 05:04:56;;;;;;;;;;;11.20;99.90;;;;;;5073562;28;20041;-83
2023/06/03 05:07:24;;;;;;;;;;;11.20;99.90;;;;;;5073016;28;19931;-82
2023/06/03 05:09:50;;;;;;;;;;;11.30;99.90;;;;;;5073830;28;19912;-84
2023/06/03 05:12:18;;;;;;;;;;;11.30;99.90;;;;;;5073315;28;19959;-84
2023/06/03 05:14:45;;;;;;;;;;;11.40;99.90;;;;;;5074053;28;19908;-83
2023/06/03 05:17:11;;;;;;;;;;;11.40;99.90;;;;;;5073533;28;19952;-83
2023/06/03 05:19:37;;;;;;;;;;;11.50;99.90;;;;;;5081683;28;19911;-83
2023/06/03 05:22:03;;;;;;;;;;;11.50;99.90;;;;;;5090719;28;20268;-83
2023/06/03 05:24:30;;;;;;;;;;;11.60;99.90;;;;;;5091497;28;19999;-83
2023/06/03 05:26:57;;;;;;;;;;;11.60;99.90;;;;;;5092882;28;20007;-83
2023/06/03 05:29:23;;;;;;;;;;;11.70;99.90;;;;;;5077868;28;19955;-83
2023/06/03 05:31:49;;;;;;;;;;;11.70;99.90;;;;;;5074069;28;20439;-83
2023/06/03 05:34:14;;;;;;;;;;;11.70;99.90;;;;;;5074432;28;19959;-83
2023/06/03 05:36:42;;;;;;;;;;;11.80;99.90;;;;;;5073145;28;19918;-83
2023/06/03 05:39:39;;;;;;;;;;;11.90;99.90;;;;;;5072929;28;19991;-84
2023/06/03 05:42:07;;;;;;;;;;;11.90;99.90;;;;;;5056788;28;19954;-84
2023/06/03 05:44:33;;;;;;;;;;;12.00;99.90;;;;;;5073382;28;20380;-84
2023/06/03 05:46:58;;;;;;;;;;;12.00;99.90;;;;;;5073052;28;19905;-85
2023/06/03 05:49:24;;;;;;;;;;;12.10;99.90;;;;;;5073044;28;19916;-84
2023/06/03 05:51:50;;;;;;;;;;;12.10;99.90;;;;;;5073220;28;19908;-84
2023/06/03 05:54:16;;;;;;;;;;;12.20;99.90;;;;;;5072890;28;19908;-83
2023/06/03 05:56:41;;;;;;;;;;;12.20;99.90;;;;;;5072672;28;19908;-84
2023/06/03 05:59:08;;;;;;;;;;;12.30;99.90;;;;;;5072812;28;19909;-83
2023/06/03 06:01:43;;;;;;;;;;;12.40;99.90;;;;;;5069165;28;19908;-83
2023/06/03 06:04:10;;;;;;;;;;;12.40;99.90;;;;;;5055832;28;19909;-83
2023/06/03 06:06:36;;;;;;;;;;;12.50;99.90;;;;;;5055904;28;19904;-83
2023/06/03 06:09:02;;;;;;;;;;;12.60;99.90;;;;;;5072709;28;19919;-84
2023/06/03 06:11:28;;;;;;;;;;;12.60;99.90;;;;;;5076204;28;19962;-84
2023/06/03 06:14:10;;;;;;;;;;;12.70;99.90;;;;;;5076716;28;20448;-83
2023/06/03 06:16:36;;;;;;;;;;;12.70;99.90;;;;;;5076795;28;19908;-85
2023/06/03 06:19:02;;;;;;;;;;;12.80;99.90;;;;;;5076529;28;19915;-83
2023/06/03 06:21:29;;;;;;;;;;;12.90;99.90;;;;;;5076368;28;19908;-83
2023/06/03 06:23:55;;;;;;;;;;;12.90;99.90;;;;;;5076467;28;20390;-84
2023/06/03 06:26:21;;;;;;;;;;;13.00;99.90;;;;;;5076373;28;20371;-84
2023/06/03 06:28:49;;;;;;;;;;;13.10;99.90;;;;;;5076278;28;19912;-84
2023/06/03 06:31:18;;;;;;;;;;;13.20;99.90;;;;;;5076358;28;19959;-84
2023/06/03 06:33:48;;;;;;;;;;;13.20;99.90;;;;;;5076520;28;19912;-85
2023/06/03 06:36:25;;;;;;;;;;;13.20;99.90;;;;;;5053326;28;19916;-84
2023/06/03 06:38:50;;;;;;;;;;;13.30;99.90;;;;;;5041815;28;19909;-85
2023/06/03 06:41:16;;;;;;;;;;;13.30;99.90;;;;;;5052342;28;19903;-84
2023/06/03 06:43:42;;;;;;;;;;;13.30;99.90;;;;;;5092484;28;19998;-83
2023/06/03 06:46:08;;;;;;;;;;;13.40;99.90;;;;;;5073720;28;19908;-83
2023/06/03 06:48:34;;;;;;;;;;;13.60;99.90;;;;;;5069988;28;19927;-83
2023/06/03 06:51:02;;;;;;;;;;;13.70;99.90;;;;;;5083569;28;19915;-83
2023/06/03 06:53:36;;;;;;;;;;;13.80;99.90;;;;;;5069206;28;19939;-83
2023/06/03 06:56:12;;;;;;;;;;;13.90;99.90;;;;;;5071099;28;19908;-84
2023/06/03 06:58:53;;;;;;;;;;;13.90;99.90;;;;;;5075568;28;19995;-85
2023/06/03 07:01:19;;;;;;;;;;;14.00;99.90;;;;;;5068845;28;19913;-84
2023/06/03 07:03:48;;;;;;;;;;;14.10;99.90;;;;;;5094048;28;19908;-81
2023/06/03 07:06:15;;;;;;;;;;;14.10;99.90;;;;;;5073289;28;20006;-83
2023/06/03 07:08:42;;;;;;;;;;;14.20;99.90;;;;;;5073019;28;19950;-82
2023/06/03 07:11:09;;;;;;;;;;;14.30;99.90;;;;;;5067512;28;19908;-83
2023/06/03 07:13:45;;;;;;;;;;;14.50;99.90;;;;;;5074428;28;19908;-84
2023/06/03 07:16:14;;;;;;;;;;;14.80;99.90;;;;;;5071304;28;19931;-84
2023/06/03 07:18:41;;;;;;;;;;;15.10;99.90;;;;;;5072019;28;19916;-83
2023/06/03 07:21:06;;;;;;;;;;;15.50;99.90;;;;;;5066883;28;19912;-83
2023/06/03 07:23:32;;;;;;;;;;;16.50;99.90;;;;;;5056919;28;19908;-84
2023/06/03 07:25:58;;;;;;;;;;;17.20;99.90;;;;;;5075553;28;19909;-84
2023/06/03 07:28:32;;;;;;;;;;;17.60;99.90;;;;;;5075312;28;19935;-83
2023/06/03 07:31:05;;;;;;;;;;;18.80;99.90;;;;;;5069594;28;20570;-83
2023/06/03 07:33:44;;;;;;;;;;;19.00;99.90;;;;;;5067772;28;19908;-84
2023/06/03 07:36:12;;;;;;;;;;;19.30;99.90;;;;;;5064369;28;19935;-84
2023/06/03 07:38:38;;;;;;;;;;;18.90;99.90;;;;;;5071052;28;19999;-84
2023/06/03 07:41:07;;;;;;;;;;;18.30;99.90;;;;;;5067799;28;20038;-84
2023/06/03 07:43:36;;;;;;;;;;;18.10;99.90;;;;;;5070658;28;20372;-84
2023/06/03 07:46:05;;;;;;;;;;;18.10;99.90;;;;;;5072257;28;19904;-84
2023/06/03 07:48:31;;;;;;;;;;;18.00;99.90;;;;;;5070495;28;19917;-83
2023/06/03 07:50:57;;;;;;;;;;;18.00;99.90;;;;;;5071283;28;19908;-84
2023/06/03 07:53:23;;;;;;;;;;;18.10;99.90;;;;;;5066368;28;19917;-85
2023/06/03 07:55:50;;;;;;;;;;;18.20;99.90;;;;;;5067733;28;19940;-85
2023/06/03 07:58:16;;;;;;;;;;;18.10;99.90;;;;;;5076127;28;20368;-85
2023/06/03 08:00:45;;;;;;;;;;;18.20;99.90;;;;;;5075009;28;19904;-85
2023/06/03 08:03:18;;;;;;;;;;;18.00;99.90;;;;;;5102315;28;20053;-83
2023/06/03 08:05:46;;;;;;;;;;;18.80;99.90;;;;;;5085485;28;19908;-85
2023/06/03 08:08:14;;;;;;;;;;;20.50;99.90;;;;;;5074868;28;19912;-82
2023/06/03 08:10:40;;;;;;;;;;;20.90;99.90;;;;;;5074336;28;20003;-84
2023/06/03 08:13:05;;;;;;;;;;;20.50;99.90;;;;;;5075383;28;20076;-83
2023/06/03 08:15:35;;;;;;;;;;;20.90;99.90;;;;;;5071461;28;20311;-83
2023/06/03 08:18:05;;;;;;;;;;;20.80;99.90;;;;;;5076026;28;19915;-83
2023/06/03 08:20:32;;;;;;;;;;;20.60;99.90;;;;;;5074367;28;19912;-83
2023/06/03 08:22:57;;;;;;;;;;;20.60;99.90;;;;;;5056975;28;19909;-83
2023/06/03 08:25:26;;;;;;;;;;;21.70;99.90;;;;;;5057506;28;20746;-92
2023/06/03 08:27:52;;;;;;;;;;;22.70;99.90;;;;;;5075028;28;20464;-87
2023/06/03 08:30:20;;;;;;;;;;;23.00;97.80;;;;;;5076502;28;20352;-86
2023/06/03 08:32:47;;;;;;;;;;;23.50;97.40;;;;;;5074496;28;19908;-86
2023/06/03 08:35:15;;;;;;;;;;;24.20;95.00;;;;;;5074464;28;19914;-87
2023/06/03 08:37:41;;;;;;;;;;;24.60;93.60;;;;;;5075014;28;19958;-86
2023/06/03 08:40:10;;;;;;;;;;;24.40;92.00;;;;;;5074808;28;20364;-86
2023/06/03 08:42:39;;;;;;;;;;;24.10;92.00;;;;;;5075165;28;20375;-87
2023/06/03 08:45:06;;;;;;;;;;;23.90;92.30;;;;;;5075467;28;19920;-87
2023/06/03 08:47:37;;;;;;;;;;;24.30;92.00;;;;;;5075374;28;19975;-86
2023/06/03 08:50:06;;;;;;;;;;;24.20;91.40;;;;;;5058473;28;19908;-86
2023/06/03 08:52:37;;;;;;;;;;;24.60;91.80;;;;;;5075949;28;19915;-86
2023/06/03 08:55:04;;;;;;;;;;;24.70;91.20;;;;;;5074672;28;19975;-85
2023/06/03 08:57:49;;;;;;;;;;;24.80;90.10;;;;;;5074333;28;19904;-86
2023/06/03 09:00:17;;;;;;;;;;;24.80;90.50;;;;;;5068211;28;20275;-86
2023/06/03 09:02:43;;;;;;;;;;;24.90;88.20;;;;;;5074229;28;19909;-86
2023/06/03 09:05:08;;;;;;;;;;;25.30;90.30;;;;;;5075573;28;20243;-87
2023/06/03 09:07:35;;;;;;;;;;;25.40;87.00;;;;;;5057514;28;19974;-87
2023/06/03 09:10:02;;;;;;;;;;;25.20;87.30;;;;;;5077534;28;20321;-88
2023/06/03 09:12:29;;;;;;;;;;;24.90;87.00;;;;;;5078471;28;20003;-86
2023/06/03 09:14:55;;;;;;;;;;;25.30;86.80;;;;;;5074305;28;19916;-87
2023/06/03 09:17:24;;;;;;;;;;;25.30;84.70;;;;;;5074954;28;19908;-87
2023/06/03 09:19:50;;;;;;;;;;;25.20;86.30;;;;;;5064874;28;19991;-87
2023/06/03 09:22:17;;;;;;;;;;;25.60;86.20;;;;;;5073963;28;19950;-88
2023/06/03 09:24:42;;;;;;;;;;;25.60;84.00;;;;;;5070836;28;19999;-87
2023/06/03 09:27:08;;;;;;;;;;;25.40;86.20;;;;;;5064927;28;20341;-87
2023/06/03 09:29:34;;;;;;;;;;;25.40;90.00;;;;;;5072843;28;19995;-86
2023/06/03 09:32:00;;;;;;;;;;;25.90;85.20;;;;;;5065988;28;19908;-86
2023/06/03 09:34:26;;;;;;;;;;;25.70;83.20;;;;;;5067587;28;19919;-89
2023/06/03 09:36:51;;;;;;;;;;;25.90;86.70;;;;;;5078525;28;19908;-87
2023/06/03 09:39:31;;;;;;;;;;;25.80;83.80;;;;;;5047365;28;19978;-88
2023/06/03 09:41:56;;;;;;;;;;;26.20;82.70;;;;;;5063984;28;19923;-88
2023/06/03 09:44:22;;;;;;;;;;;26.20;82.30;;;;;;5077466;28;19909;-87
2023/06/03 09:46:49;;;;;;;;;;;26.60;81.10;;;;;;5061757;28;19938;-87
2023/06/03 09:49:18;;;;;;;;;;;26.60;81.00;;;;;;5070514;28;19935;-87
2023/06/03 09:51:45;;;;;;;;;;;26.20;81.20;;;;;;5065711;28;19999;-87
2023/06/03 09:54:12;;;;;;;;;;;25.40;84.60;;;;;;5073032;28;20366;-89
2023/06/03 09:56:37;;;;;;;;;;;25.60;83.20;;;;;;5062394;28;19905;-87
2023/06/03 09:59:13;;;;;;;;;;;25.60;82.00;;;;;;5067041;28;19908;-88
2023/06/03 10:01:40;;;;;;;;;;;25.50;81.50;;;;;;5079715;28;19912;-88
2023/06/03 10:04:05;;;;;;;;;;;24.70;82.50;;;;;;5065407;28;20372;-87
2023/06/03 10:06:32;;;;;;;;;;;24.80;84.30;;;;;;5079366;28;20041;-87
2023/06/03 10:09:00;;;;;;;;;;;24.40;83.80;;;;;;5069214;28;19928;-87
2023/06/03 10:11:25;;;;;;;;;;;23.90;84.20;;;;;;5087816;28;19962;-88
2023/06/03 10:14:01;;;;;;;;;;;24.00;86.10;;;;;;5070193;28;19908;-87
2023/06/03 10:16:27;;;;;;;;;;;24.40;84.90;;;;;;5062883;28;20298;-87
2023/06/03 10:18:52;;;;;;;;;;;24.40;84.80;;;;;;5070627;28;19909;-87
2023/06/03 10:21:19;;;;;;;;;;;23.90;86.30;;;;;;5070434;28;19908;-88
2023/06/03 10:23:45;;;;;;;;;;;23.70;88.10;;;;;;5074466;28;19918;-86
2023/06/03 10:26:11;;;;;;;;;;;23.70;87.40;;;;;;5073268;28;19908;-88
2023/06/03 10:28:38;;;;;;;;;;;23.90;86.30;;;;;;5076753;28;19977;-86
2023/06/03 10:31:04;;;;;;;;;;;23.90;84.60;;;;;;5072586;28;19916;-87
2023/06/03 10:33:31;;;;;;;;;;;23.70;85.20;;;;;;5073600;28;19904;-87
2023/06/03 10:35:57;;;;;;;;;;;23.40;85.90;;;;;;5073732;28;19909;-87
2023/06/03 10:38:23;;;;;;;;;;;23.40;85.30;;;;;;5073537;28;19913;-88
2023/06/03 10:41:21;;;;;;;;;;;23.30;83.80;;;;;;5073140;28;19955;-88
2023/06/03 10:43:47;;;;;;;;;;;23.20;84.20;;;;;;5056764;28;19915;-86
2023/06/03 10:46:34;;;;;;;;;;;23.30;85.80;;;;;;5073883;28;20344;-88
2023/06/03 10:49:12;;;;;;;;;;;23.30;86.60;;;;;;5073135;28;19980;-87
2023/06/03 10:51:56;;;;;;;;;;;23.60;86.20;;;;;;5073697;28;19939;-87
2023/06/03 10:54:22;;;;;;;;;;;23.80;85.00;;;;;;5074146;28;20248;-86
2023/06/03 10:56:53;;;;;;;;;;;23.70;86.70;;;;;;5058515;28;20022;-89
2023/06/03 10:59:21;;;;;;;;;;;23.40;87.90;;;;;;5076898;28;19912;-87
2023/06/03 11:01:57;;;;;;;;;;;23.40;86.20;;;;;;5076908;28;19904;-87
2023/06/03 11:04:23;;;;;;;;;;;23.60;86.60;;;;;;5060585;28;19939;-87
2023/06/03 11:06:49;;;;;;;;;;;23.70;84.80;;;;;;5076644;28;20348;-87
2023/06/03 11:09:28;;;;;;;;;;;23.70;85.00;;;;;;5076186;28;19923;-87
2023/06/03 11:11:58;;;;;;;;;;;24.00;83.50;;;;;;5077126;28;19955;-88
2023/06/03 11:14:38;;;;;;;;;;;24.00;82.80;;;;;;5076817;28;19915;-88
2023/06/03 11:17:03;;;;;;;;;;;24.30;82.20;;;;;;5060290;28;19972;-87
2023/06/03 11:19:44;;;;;;;;;;;24.50;81.70;;;;;;5076375;28;19958;-88
2023/06/03 11:22:10;;;;;;;;;;;24.80;80.40;;;;;;5089864;28;20370;-87
2023/06/03 11:24:42;;;;;;;;;;;25.10;81.30;;;;;;5076928;28;19957;-88
2023/06/03 11:27:18;;;;;;;;;;;25.30;80.40;;;;;;5060015;28;19999;-87
2023/06/03 11:29:48;;;;;;;;;;;25.40;80.20;;;;;;5076176;28;20303;-87
2023/06/03 11:32:25;;;;;;;;;;;25.50;79.00;;;;;;5060489;28;19968;-87
2023/06/03 11:35:11;;;;;;;;;;;25.30;77.90;;;;;;5071838;28;20016;-87
2023/06/03 11:41:05;;;;;;;;;;;25.30;80.10;;;;;;5068849;28;19994;-87
2023/06/03 11:43:31;;;;;;;;;;;25.00;81.40;;;;;;5083094;28;19912;-87
2023/06/03 11:46:03;;;;;;;;;;;24.80;80.90;;;;;;5073498;28;19909;-87
2023/06/03 11:48:32;;;;;;;;;;;24.70;79.50;;;;;;5069628;28;20255;-87
2023/06/03 11:50:58;;;;;;;;;;;24.70;78.80;;;;;;5078235;28;20284;-86
2023/06/03 11:53:41;;;;;;;;;;;24.20;80.10;;;;;;5105681;28;19908;-86
2023/06/03 11:56:08;;;;;;;;;;;24.20;82.40;;;;;;5071130;28;19908;-87
2023/06/03 11:58:35;;;;;;;;;;;24.40;78.90;;;;;;5075826;28;20295;-88
2023/06/03 12:01:11;;;;;;;;;;;24.50;82.00;;;;;;5076883;28;20007;-87
2023/06/03 12:03:37;;;;;;;;;;;24.40;81.70;;;;;;5073636;28;19962;-88
2023/06/03 12:06:18;;;;;;;;;;;24.70;81.10;;;;;;5077085;28;19905;-87
2023/06/03 12:08:47;;;;;;;;;;;24.30;78.40;;;;;;5076753;28;19912;-86
2023/06/03 12:11:33;;;;;;;;;;;23.70;80.60;;;;;;5069038;28;19908;-87
2023/06/03 12:13:59;;;;;;;;;;;24.00;81.60;;;;;;5073296;28;19931;-87
2023/06/03 12:16:32;;;;;;;;;;;24.20;80.30;;;;;;5071690;28;20121;-87
2023/06/03 12:19:02;;;;;;;;;;;23.50;81.20;;;;;;5066905;28;19917;-87
2023/06/03 12:21:28;;;;;;;;;;;23.30;83.00;;;;;;5088031;28;20236;-86
2023/06/03 12:23:54;;;;;;;;;;;24.10;83.10;;;;;;5064945;28;20280;-87
2023/06/03 12:26:20;;;;;;;;;;;24.90;80.90;;;;;;5091199;28;19915;-87
2023/06/03 12:28:46;;;;;;;;;;;25.90;78.50;;;;;;5072825;28;20416;-86
2023/06/03 12:31:15;;;;;;;;;;;26.80;78.10;;;;;;5063016;28;19931;-88
2023/06/03 12:33:55;;;;;;;;;;;27.30;74.70;;;;;;5064072;28;19942;-87
2023/06/03 12:36:22;;;;;;;;;;;27.50;72.30;;;;;;5082734;28;19988;-87
2023/06/03 12:38:52;;;;;;;;;;;26.60;73.20;;;;;;5071147;28;19908;-87
2023/06/03 12:41:18;;;;;;;;;;;26.40;76.40;;;;;;5071153;28;19971;-87
2023/06/03 12:43:45;;;;;;;;;;;27.40;74.40;;;;;;5068744;28;19904;-87
2023/06/03 12:46:17;;;;;;;7.55;4.70;;;27.80;72.00;;;;;;5082640;28;19968;-87
2023/06/03 12:48:46;;;;;;;13.13;5.10;;;28.40;69.60;;;;;;5056292;28;20510;-87
2023/06/03 12:51:26;;;;;;;10.90;4.70;;;28.10;71.20;;;;;;5063956;28;20474;-87
2023/06/03 12:53:55;;;;;;;11.27;4.93;;;27.80;70.20;;;;;;5068131;28;20036;-87
2023/06/03 12:56:26;;;;;;;14.05;5.30;;;28.10;68.70;;;;;;5081108;28;20067;-87
2023/06/03 12:58:55;;;;;;;10.50;4.68;;;27.70;70.40;;;;;;5077416;28;20492;-86
2023/06/03 13:01:22;;;;;;;8.45;4.97;;;27.50;71.50;;;;;;5073301;28;20024;-87
2023/06/03 13:03:48;;;;;;;16.23;5.45;;;27.10;72.40;;;;;;5061361;28;20032;-87
2023/06/03 13:06:15;;;;;;;8.88;5.07;;;26.30;71.80;;;;;;5078251;28;20036;-88
2023/06/03 13:08:41;;;;;;;10.27;4.88;;;26.60;73.50;;;;;;5050485;28;20020;-87
2023/06/03 13:11:08;;;;;;;14.32;5.15;;;27.40;72.80;;;;;;5083591;28;20115;-87
2023/06/03 13:13:34;;;;;;;9.10;5.63;;;27.50;69.70;;;;;;5066667;28;20028;-87
2023/06/03 13:16:01;;;;;;;8.38;5.03;;;26.80;69.70;;;;;;5066584;28;20021;-87
2023/06/03 13:18:27;;;;;;;12.65;5.90;;;25.80;71.70;;;;;;5067392;28;20036;-86
2023/06/03 13:20:53;;;;;;;13.68;5.50;;;25.00;73.40;;;;;;5080232;28;20029;-86
2023/06/03 13:23:19;;;;;;;9.50;4.82;;;25.50;73.10;;;;;;5071164;28;20070;-88
2023/06/03 13:25:45;;;;;;;10.93;5.55;;;26.20;75.00;;;;;;5080009;28;20020;-87
2023/06/03 13:28:11;;;;;;;8.88;5.63;;;25.20;72.20;;;;;;5073626;28;20376;-87
2023/06/03 13:30:36;;;;;;;14.05;6.07;;;24.90;75.00;;;;;;5058473;28;20020;-87
2023/06/03 13:33:02;;;;;;;7.50;5.38;;;25.50;74.50;;;;;;5075176;28;20074;-87
2023/06/03 13:35:28;;;;;;;13.35;5.75;;;26.80;75.60;;;;;;5057891;28;20474;-87
2023/06/03 13:37:54;;;;;;;13.48;5.50;;;27.40;70.00;;;;;;5057439;28;20105;-87
2023/06/03 13:40:20;;;;;;;11.02;5.13;;;28.00;70.30;;;;;;5073720;28;20020;-88
2023/06/03 13:42:46;;;;;;;9.35;4.63;;;27.50;72.90;;;;;;5073620;28;20043;-87
2023/06/03 13:45:11;;;;;;;10.40;4.45;;;27.90;73.80;;;;;;5073549;28;20028;-87
2023/06/03 13:47:38;;;;;;;15.55;5.30;;;28.40;70.70;;;;;;5056651;28;20028;-88
2023/06/03 13:50:07;;;;;;;9.63;5.53;;;29.00;67.60;;;;;;5073103;28;20038;-88
2023/06/03 13:52:33;;;;;;;11.43;4.75;;;29.60;67.20;;;;;;5056737;28;20031;-87
2023/06/03 13:54:59;;;;;;;9.57;5.55;;;29.60;65.10;;;;;;5073050;28;20387;-87
2023/06/03 13:57:25;;;;;;;7.80;5.18;;;29.70;61.50;;;;;;5074410;28;20035;-87
2023/06/03 13:59:51;;;;;;;13.15;5.25;;;29.10;65.40;;;;;;5056708;28;20142;-87
2023/06/03 14:02:17;;;;;;;13.93;4.72;;;28.60;65.00;;;;;;5072573;28;20046;-87
2023/06/03 14:04:43;;;;;;;12.38;5.20;;;28.20;65.40;;;;;;5056585;28;20080;-87
2023/06/03 14:07:09;;;;;;;13.50;5.40;;;27.80;64.90;;;;;;5072951;28;20036;-86
2023/06/03 14:09:35;;;;;;;10.13;5.40;;;27.80;65.30;;;;;;5073118;28;20032;-87
2023/06/03 14:12:11;;;;;;;8.57;5.15;;;28.10;66.90;;;;;;5073303;28;20056;-87
2023/06/03 14:14:37;;;;;;;12.45;5.10;;;27.70;65.40;;;;;;5056319;28;20036;-87
2023/06/03 14:17:03;;;;;;;;;;;27.00;67.80;;;;;;5074727;28;20484;-86
2023/06/03 14:19:32;;;;;;;;;;;25.50;69.00;;;;;;5074297;28;19962;-86